Fillmore, Minnesota
Current Conditions -  °F | °C
As of 11:15 AM on Thursday 18 Dec 2014 (Local Time) from KFKA Reporting Station
Overcast Overcast  
Wind Chill: 19°   Ceiling: 1600
Heat Index: 19°   Visibility: 10mi
Dew Point: 15°   Wind: 3mph
Humidity: 86%   Direction: 120°ESE
Pressure: 30.27"   Gusts: NA
Location:  43.7236°N, 92.2677°W
Report Text: KFKA 181715Z AUTO 12003KT 10SM OVC016 M07/M09 A3027 RMK AO2 T10751095
Loading
Personal Weather Stations






























Interactive Weather Map New forecast layout! Learn more

10-Day Weather Forecast

Advertisements
Track Severe Weather on mobile